Time;durP1;ratioP1;P1;durP2;ratioP2;P2;SDS_P1;SDS_P2;PMS_P1;PMS_P2;Temp;Humidity;BMP_temperature;BMP_pressure;BME280_temperature;BME280_humidity;BME280_pressure;Samples;Min_cycle;Max_cycle;Signal;HPM_P1;HPM_P2
2022/06/08 00:00:00;;;;;;;12.23;5.78;;;;;;;21.40;71.54;100610.72;5024127;28;20045;-81
2022/06/08 00:02:30;;;;;;;6.33;4.70;;;;;;;21.27;71.63;100587.22;5024209;28;20065;-81
2022/06/08 00:04:58;;;;;;;9.80;5.10;;;;;;;21.50;71.97;100630.03;5024336;28;20187;-81
2022/06/08 00:07:26;;;;;;;5.95;4.60;;;;;;;21.49;70.81;100625.69;5024082;28;20049;-80
2022/06/08 00:09:52;;;;;;;11.02;5.07;;;;;;;21.44;70.41;100609.25;5025225;28;20095;-80
2022/06/08 00:12:19;;;;;;;5.30;4.38;;;;;;;21.16;69.94;100569.75;5029200;28;20057;-79
2022/06/08 00:14:46;;;;;;;8.05;5.15;;;;;;;21.12;70.60;100569.34;5025341;28;20297;-79
2022/06/08 00:17:13;;;;;;;8.85;4.93;;;;;;;21.38;70.58;100627.06;5023512;28;20049;-80
2022/06/08 00:19:40;;;;;;;10.25;5.28;;;;;;;21.11;70.91;100586.56;5022952;28;20462;-81
2022/06/08 00:22:07;;;;;;;8.93;5.72;;;;;;;20.79;71.04;100550.41;5038987;28;20053;-79
2022/06/08 00:24:34;;;;;;;13.02;5.35;;;;;;;20.87;71.42;100570.97;5043650;28;20049;-79
2022/06/08 00:27:00;;;;;;;7.63;5.80;;;;;;;21.19;71.77;100617.94;5044836;28;20087;-78
2022/06/08 00:29:27;;;;;;;8.13;4.55;;;;;;;21.19;71.40;100627.88;5044690;28;20486;-80
2022/06/08 00:31:54;;;;;;;13.65;4.78;;;;;;;20.84;70.94;100576.78;5043677;28;20049;-78
2022/06/08 00:34:21;;;;;;;11.27;4.70;;;;;;;20.91;70.48;100585.72;5043976;28;20040;-79
2022/06/08 00:36:48;;;;;;;6.05;4.68;;;;;;;21.04;70.89;100610.00;5044769;28;20099;-79
2022/06/08 00:39:15;;;;;;;5.10;4.25;;;;;;;21.06;70.29;100620.59;5047325;28;20175;-79
2022/06/08 00:41:48;;;;;;;9.43;4.40;;;;;;;21.03;69.69;100608.34;5045516;28;20442;-79
2022/06/08 00:44:33;;;;;;;5.30;4.80;;;;;;;21.07;70.16;100612.31;5044956;28;20091;-79
2022/06/08 00:47:03;;;;;;;8.52;5.00;;;;;;;20.56;71.07;100541.84;5046055;28;20067;-80
2022/06/08 00:49:43;;;;;;;6.60;4.53;;;;;;;20.97;71.00;100609.19;5048516;28;20132;-81
2022/06/08 00:52:11;;;;;;;8.10;4.63;;;;;;;21.00;71.13;100622.28;5051090;28;20053;-79
2022/06/08 00:54:42;;;;;;;6.78;4.63;;;;;;;21.10;69.84;100620.00;5046559;28;20052;-80
2022/06/08 00:57:16;;;;;;;8.05;4.40;;;;;;;21.12;70.13;100617.09;5050672;28;20441;-80
2022/06/08 00:59:49;;;;;;;5.80;4.20;;;;;;;21.12;70.38;100639.53;5049038;28;20446;-80
2022/06/08 01:02:16;;;;;;;5.90;5.05;;;;;;;20.49;70.75;100537.25;5047366;28;20060;-80
2022/06/08 01:04:43;;;;;;;7.70;4.88;;;;;;;20.91;70.85;100610.00;5050283;28;20053;-80
2022/06/08 01:07:19;;;;;;;5.13;4.25;;;;;;;20.90;71.12;100602.94;5053649;28;20139;-80
2022/06/08 01:09:48;;;;;;;7.97;4.90;;;;;;;20.61;70.88;100564.47;5051430;28;20048;-81
2022/06/08 01:12:19;;;;;;;7.43;5.47;;;;;;;21.04;71.27;100633.47;5053978;28;20315;-80
2022/06/08 01:14:48;;;;;;;7.15;5.22;;;;;;;20.90;71.35;100613.75;5049032;28;20067;-80
2022/06/08 01:17:19;;;;;;;8.80;5.00;;;;;;;20.90;70.97;100613.75;5049359;28;20473;-80
2022/06/08 01:19:48;;;;;;;10.85;4.88;;;;;;;20.98;71.51;100628.91;5047115;28;20512;-80
2022/06/08 01:22:17;;;;;;;10.68;5.57;;;;;;;20.95;71.59;100615.81;5030841;28;20503;-79
2022/06/08 01:24:47;;;;;;;10.85;5.35;;;;;;;20.96;71.72;100606.69;5026522;28;20507;-80
2022/06/08 01:27:22;;;;;;;6.47;4.95;;;;;;;21.03;71.58;100624.56;5025861;28;20442;-79
2022/06/08 01:30:12;;;;;;;8.05;5.13;;;;;;;21.04;71.44;100620.81;5026215;28;20352;-79
2022/06/08 01:33:01;;;;;;;9.95;5.70;;;;;;;21.01;71.39;100615.81;5026026;28;20411;-79
2022/06/08 01:35:45;;;;;;;6.50;4.78;;;;;;;21.03;70.57;100638.03;5025859;28;20415;-81
2022/06/08 01:38:34;;;;;;;7.03;5.32;;;;;;;21.12;70.55;100639.53;5025813;28;20483;-78
2022/06/08 01:41:16;;;;;;;9.25;5.10;;;;;;;21.22;70.00;100636.41;5026370;28;20053;-79
2022/06/08 01:43:54;;;;;;;7.50;5.65;;;;;;;21.16;69.97;100633.72;5027621;28;20285;-79
2022/06/08 01:46:27;;;;;;;10.70;5.55;;;;;;;21.13;70.48;100643.03;5025979;28;20057;-80
2022/06/08 01:49:12;;;;;;;8.82;5.40;;;;;;;21.08;70.89;100642.84;5025692;28;20719;-81
2022/06/08 01:52:11;;;;;;;10.70;6.00;;;;;;;21.00;70.92;100638.47;5026742;28;20050;-80
2022/06/08 01:54:46;;;;;;;9.40;6.60;;;;;;;20.96;70.80;100623.69;5006495;28;20503;-80
2022/06/08 01:57:47;;;;;;;12.30;7.07;;;;;;;21.01;70.19;100644.69;5006168;28;20053;-80
2022/06/08 02:00:20;;;;;;;6.50;5.43;;;;;;;20.97;70.70;100643.41;5005616;28;20124;-80
2022/06/08 02:03:28;;;;;;;15.85;6.95;;;;;;;20.96;71.10;100645.28;5006116;28;20108;-80
2022/06/08 02:06:21;;;;;;;13.00;6.68;;;;;;;20.90;70.41;100655.03;4988095;28;20057;-81
2022/06/08 02:08:56;;;;;;;12.30;7.53;;;;;;;20.66;71.01;100632.13;5001309;28;20076;-80
2022/06/08 02:11:43;;;;;;;16.38;7.20;;;;;;;20.65;70.94;100643.94;5036580;28;20057;-81
2022/06/08 02:14:18;;;;;;;9.82;6.75;;;;;;;19.84;71.50;100539.44;5027470;28;20243;-80
2022/06/08 02:16:53;;;;;;;11.80;7.03;;;;;;;20.17;71.76;100603.47;5025943;28;20700;-80
2022/06/08 02:19:46;;;;;;;12.07;7.10;;;;;;;20.22;72.51;100643.28;5028683;28;20053;-81
2022/06/08 02:22:25;;;;;;;16.75;7.95;;;;;;;19.97;72.92;100613.28;5026954;28;20727;-80
2022/06/08 02:25:02;;;;;;;13.57;7.38;;;;;;;20.02;72.99;100630.53;5027358;28;20180;-79
2022/06/08 02:27:34;;;;;;;12.43;6.35;;;;;;;19.90;73.35;100601.63;5025828;28;20050;-79
2022/06/08 02:30:15;;;;;;;12.15;6.82;;;;;;;20.06;73.60;100628.28;5026135;28;20049;-80
2022/06/08 02:35:44;;;;;;;11.55;6.00;;;;;;;20.36;71.40;100626.16;5027062;28;20045;-80
2022/06/08 02:38:15;;;;;;;11.05;6.53;;;;;;;19.56;70.94;100498.22;5025031;28;20732;-81
2022/06/08 02:40:48;;;;;;;8.88;6.07;;;;;;;19.84;71.58;100561.00;5025300;28;20095;-80
2022/06/08 02:43:29;;;;;;;9.32;6.80;;;;;;;20.11;71.82;100614.22;5025220;28;20057;-80
2022/06/08 02:46:28;;;;;;;11.45;6.30;;;;;;;20.19;72.23;100641.81;5025307;28;20049;-80
2022/06/08 02:48:55;;;;;;;11.98;6.45;;;;;;;20.10;72.63;100645.72;5026567;28;20056;-80
2022/06/08 02:51:27;;;;;;;18.58;7.22;;;;;;;19.52;72.80;100565.13;5025873;28;20511;-79
2022/06/08 02:54:06;;;;;;;14.02;6.80;;;;;;;19.56;73.43;100601.38;5026559;28;20071;-79
2022/06/08 02:56:42;;;;;;;7.93;6.43;;;;;;;19.83;73.82;100645.53;5025336;28;20057;-80
2022/06/08 02:59:36;;;;;;;10.02;6.07;;;;;;;19.92;73.52;100648.06;5025192;28;20484;-80
2022/06/08 03:02:24;;;;;;;8.13;5.95;;;;;;;19.79;73.69;100622.72;5025192;28;20304;-79
2022/06/08 03:05:04;;;;;;;11.88;5.55;;;;;;;19.77;73.58;100592.44;5024802;28;20064;-80
2022/06/08 03:07:36;;;;;;;9.13;6.15;;;;;;;20.21;73.13;100655.94;5024935;28;20045;-79
2022/06/08 03:10:08;;;;;;;10.57;6.03;;;;;;;19.59;72.60;100551.69;5021637;28;20565;-80
2022/06/08 03:12:43;;;;;;;14.38;5.68;;;;;;;20.19;73.22;100643.69;5004591;28;20491;-80
2022/06/08 03:15:15;;;;;;;10.98;5.68;;;;;;;20.23;72.87;100648.47;5004864;28;20104;-79
2022/06/08 03:17:47;;;;;;;9.05;5.88;;;;;;;20.32;72.62;100659.13;5004809;28;20640;-79
2022/06/08 03:20:13;;;;;;;;;;;;;;;20.32;72.30;100662.66;5006156;28;20112;-79
2022/06/08 03:22:40;;;;;;;8.43;5.53;;;;;;;19.91;71.61;100593.38;5043659;28;19982;-80
2022/06/08 03:25:08;;;;;;;7.15;4.95;;;;;;;20.20;71.34;100640.81;5044746;28;20049;-79
2022/06/08 03:27:37;;;;;;;5.55;4.95;;;;;;;20.31;71.78;100662.84;5044521;28;20052;-79
2022/06/08 03:30:06;;;;;;;10.73;5.53;;;;;;;20.28;72.02;100648.72;5044742;28;20716;-80
2022/06/08 03:32:32;;;;;;;8.63;5.57;;;;;;;20.38;71.38;100664.53;5044140;28;20680;-79
2022/06/08 03:34:59;;;;;;;8.15;5.45;;;;;;;20.34;70.99;100657.91;5046599;28;20049;-81
2022/06/08 03:37:26;;;;;;;14.80;5.50;;;;;;;20.38;71.36;100669.09;5050753;28;20518;-79
2022/06/08 03:39:54;;;;;;;6.93;4.90;;;;;;;19.89;71.48;100606.19;5046632;28;20323;-78
2022/06/08 03:42:20;;;;;;;9.40;5.47;;;;;;;20.18;72.03;100658.22;5044138;28;20064;-80
2022/06/08 03:44:47;;;;;;;7.90;5.43;;;;;;;20.01;71.95;100649.59;5043801;28;20545;-79
2022/06/08 03:47:18;;;;;;;7.00;5.28;;;;;;;19.76;72.21;100625.81;5043766;28;20072;-79
2022/06/08 03:49:46;;;;;;;8.52;5.70;;;;;;;20.02;72.04;100680.88;5043786;28;20057;-80
2022/06/08 03:52:19;;;;;;;5.95;4.97;;;;;;;20.04;72.18;100674.28;5040952;28;20115;-78
2022/06/08 03:54:50;;;;;;;11.48;6.00;;;;;;;19.37;71.97;100570.59;5023427;28;20419;-79
2022/06/08 03:57:17;;;;;;;5.47;4.95;;;;;;;20.04;71.65;100682.34;5024862;28;20707;-80
2022/06/08 03:59:46;;;;;;;6.93;4.85;;;;;;;20.09;71.39;100681.78;5024889;28;20042;-80
2022/06/08 04:02:14;;;;;;;10.55;4.90;;;;;;;20.14;71.03;100679.31;5023281;28;20049;-79
2022/06/08 04:04:41;;;;;;;5.78;4.57;;;;;;;19.68;70.76;100607.09;5024004;28;20060;-80
2022/06/08 04:07:08;;;;;;;8.20;4.45;;;;;;;20.20;70.43;100683.94;5023553;28;20454;-80
2022/06/08 04:09:35;;;;;;;6.47;4.57;;;;;;;20.24;70.07;100669.03;5020640;28;20115;-79
2022/06/08 04:12:03;;;;;;;6.22;4.82;;;;;;;20.04;70.27;100628.47;5004049;28;20392;-80
2022/06/08 04:14:30;;;;;;;13.40;5.00;;;;;;;20.39;69.85;100668.91;5004323;28;20143;-79
2022/06/08 04:16:56;;;;;;;5.40;4.32;;;;;;;20.36;70.01;100652.28;5020169;28;20069;-80
2022/06/08 04:19:24;;;;;;;9.23;4.32;;;;;;;20.56;69.53;100677.53;5020050;28;20104;-80
2022/06/08 04:21:50;;;;;;;13.88;5.15;;;;;;;20.64;69.17;100677.34;5027505;28;20126;-78
2022/06/08 04:24:18;;;;;;;5.53;4.78;;;;;;;20.67;69.16;100682.34;5043891;28;20448;-78
2022/06/08 04:26:45;;;;;;;8.35;4.80;;;;;;;20.42;68.93;100657.72;5048336;28;20041;-80
2022/06/08 04:29:12;;;;;;;7.22;4.53;;;;;;;20.62;68.80;100692.91;5044840;28;20163;-80
2022/06/08 04:31:40;;;;;;;7.05;5.03;;;;;;;20.51;69.13;100669.19;5044045;28;20461;-80
2022/06/08 04:34:09;;;;;;;9.85;6.10;;;;;;;19.75;69.03;100548.72;5047622;28;20049;-80
2022/06/08 04:36:40;;;;;;;8.15;5.18;;;;;;;20.32;68.82;100633.00;5048397;28;20053;-79
2022/06/08 04:39:09;;;;;;;6.05;5.45;;;;;;;20.74;69.51;100703.13;5048021;28;20122;-80
2022/06/08 04:41:37;;;;;;;9.65;5.20;;;;;;;20.80;69.93;100710.41;5049069;28;20126;-80
2022/06/08 04:44:05;;;;;;;8.93;5.53;;;;;;;20.74;70.24;100692.34;5047708;28;20506;-81
2022/06/08 04:46:32;;;;;;;7.03;5.35;;;;;;;20.81;70.30;100709.38;5047770;28;20134;-79
2022/06/08 04:48:59;;;;;;;7.03;6.43;;;;;;;20.88;69.99;100708.38;5048036;28;20040;-79
2022/06/08 04:51:26;;;;;;;6.70;6.10;;;;;;;20.94;69.61;100712.13;5051509;28;20045;-81
2022/06/08 04:53:53;;;;;;;10.35;6.95;;;;;;;21.02;68.55;100709.25;5036264;28;20079;-79
2022/06/08 04:56:20;;;;;;;10.65;5.40;;;;;;;21.14;68.81;100709.47;5028928;28;20133;-79
2022/06/08 04:58:48;;;;;;;10.43;5.20;;;;;;;21.16;67.90;100698.50;5028263;28;20106;-79
2022/06/08 05:01:14;;;;;;;10.13;6.05;;;;;;;21.34;67.92;100709.56;5028509;28;20053;-79
2022/06/08 05:03:42;;;;;;;10.02;5.88;;;;;;;21.32;67.25;100687.31;5026755;28;20480;-78
2022/06/08 05:06:09;;;;;;;9.93;6.38;;;;;;;21.50;67.42;100701.06;5028783;28;20060;-78
2022/06/08 05:08:36;;;;;;;8.35;5.60;;;;;;;21.56;67.41;100704.84;5024847;28;20069;-78
2022/06/08 05:11:05;;;;;;;11.57;6.00;;;;;;;21.58;67.48;100708.16;5008429;28;20049;-78
2022/06/08 05:13:32;;;;;;;6.20;5.60;;;;;;;21.17;67.44;100635.38;5008284;28;20116;-78
2022/06/08 05:15:59;;;;;;;10.20;5.60;;;;;;;21.67;67.95;100706.91;5009420;28;20115;-79
2022/06/08 05:18:26;;;;;;;7.43;5.95;;;;;;;21.73;67.81;100710.66;5024984;28;20045;-78
2022/06/08 05:20:53;;;;;;;9.65;5.40;;;;;;;21.72;67.37;100690.06;5031846;28;20457;-78
2022/06/08 05:23:25;;;;;;;8.63;5.03;;;;;;;21.78;67.00;100689.25;5031542;28;20079;-78
2022/06/08 05:25:53;;;;;;;6.07;5.13;;;;;;;22.04;66.60;100714.59;5027097;28;20069;-80
2022/06/08 05:28:21;;;;;;;10.93;5.72;;;;;;;21.80;65.73;100646.66;5027291;28;20060;-80
2022/06/08 05:30:49;;;;;;;12.93;5.47;;;;;;;22.03;64.91;100664.28;5027019;28;20132;-77
2022/06/08 05:33:17;;;;;;;13.60;5.97;;;;;;;22.30;65.88;100695.66;5027057;28;20557;-79
2022/06/08 05:35:44;;;;;;;8.88;5.47;;;;;;;22.12;65.08;100677.38;5028834;28;20061;-79
2022/06/08 05:38:11;;;;;;;10.85;4.97;;;;;;;22.46;65.10;100717.91;5029457;28;20111;-78
2022/06/08 05:40:38;;;;;;;15.75;6.05;;;;;;;21.89;64.58;100625.63;5028028;28;20049;-79
2022/06/08 05:43:07;;;;;;;6.93;5.13;;;;;;;22.53;65.21;100716.03;5043884;28;20487;-79
2022/06/08 05:45:35;;;;;;;6.80;6.00;;;;;;;22.64;65.47;100718.06;5047091;28;20052;-80
2022/06/08 05:48:04;;;;;;;8.63;5.95;;;;;;;22.70;65.10;100728.03;5033290;28;20499;-78
2022/06/08 05:50:32;;;;;;;7.72;4.90;;;;;;;22.46;64.41;100688.16;5027656;28;20049;-80
2022/06/08 05:52:59;;;;;;;7.30;5.53;;;;;;;22.87;63.75;100739.22;5026022;28;20056;-79
2022/06/08 05:55:26;;;;;;;6.88;5.13;;;;;;;22.91;63.77;100726.06;5025945;28;20362;-78
2022/06/08 05:57:53;;;;;;;10.13;5.38;;;;;;;22.94;63.62;100728.38;5025883;28;20530;-78
2022/06/08 06:00:24;;;;;;;9.05;5.40;;;;;;;23.24;63.39;100734.91;5027478;28;20467;-78
2022/06/08 06:02:50;;;;;;;9.20;4.95;;;;;;;23.13;62.79;100711.22;5026032;28;20144;-79
2022/06/08 06:05:21;;;;;;;8.40;5.28;;;;;;;23.52;62.81;100740.97;5026247;28;20057;-78
2022/06/08 06:07:48;;;;;;;11.30;6.10;;;;;;;23.71;62.51;100741.91;5025597;28;20118;-78
2022/06/08 06:10:16;;;;;;;6.57;5.10;;;;;;;23.66;61.70;100732.53;5025622;28;20069;-78
2022/06/08 06:12:43;;;;;;;8.25;5.53;;;;;;;23.65;61.85;100739.03;5027244;28;20091;-78
2022/06/08 06:15:13;;;;;;;10.30;6.63;;;;;;;23.65;61.14;100747.16;5026427;28;20053;-78
2022/06/08 06:17:39;;;;;;;10.63;6.60;;;;;;;23.27;60.99;100693.00;5024572;28;20064;-79
2022/06/08 06:20:07;;;;;;;7.68;5.47;;;;;;;23.60;61.69;100751.56;5025202;28;20055;-79
2022/06/08 06:22:35;;;;;;;10.35;5.80;;;;;;;23.62;61.73;100749.47;5025270;28;20052;-78
2022/06/08 06:25:06;;;;;;;11.10;5.72;;;;;;;23.70;61.14;100748.38;5027469;28;20062;-78
2022/06/08 06:27:32;;;;;;;8.55;6.30;;;;;;;23.65;60.10;100752.56;5027961;28;20139;-79
2022/06/08 06:29:59;;;;;;;9.93;5.88;;;;;;;23.60;59.82;100743.44;5027771;28;20327;-79
2022/06/08 06:32:33;;;;;;;13.63;6.30;;;;;;;23.12;59.81;100668.94;5030226;28;20049;-79
2022/06/08 06:35:01;;;;;;;8.93;5.75;;;;;;;23.88;61.29;100741.19;5031308;28;20103;-79
2022/06/08 06:37:29;;;;;;;8.82;6.28;;;;;;;23.71;59.76;100717.50;5027811;28;20063;-80
2022/06/08 06:39:56;;;;;;;7.40;6.30;;;;;;;23.79;59.77;100720.81;5027169;28;20499;-79
2022/06/08 06:42:27;;;;;;;10.63;6.93;;;;;;;23.56;59.24;100680.72;5025864;28;20083;-79
2022/06/08 06:44:53;;;;;;;11.05;6.97;;;;;;;23.84;59.62;100731.00;5026436;28;20134;-79
2022/06/08 06:47:20;;;;;;;9.85;7.35;;;;;;;24.01;59.72;100734.81;5025833;28;20049;-79
2022/06/08 06:49:47;;;;;;;8.10;7.05;;;;;;;24.09;59.92;100729.09;5026587;28;20116;-78
2022/06/08 06:52:15;;;;;;;11.32;8.23;;;;;;;23.81;59.65;100674.50;5028719;28;20061;-79
2022/06/08 06:54:42;;;;;;;9.07;5.45;;;;;;;24.46;60.47;100736.50;5031254;28;20263;-79
2022/06/08 06:57:09;;;;;;;7.38;5.75;;;;;;;24.55;60.15;100709.91;5030277;28;20084;-78
2022/06/08 06:59:36;;;;;;;8.32;7.20;;;;;;;24.18;59.09;100658.31;5026695;28;20311;-78
2022/06/08 07:02:03;;;;;;;13.18;8.68;;;;;;;24.45;58.86;100692.22;5025178;28;20112;-77
2022/06/08 07:04:29;;;;;;;11.93;9.70;;;;;;;23.81;58.50;100604.03;5025002;28;20045;-78
2022/06/08 07:06:56;;;;;;;13.57;10.68;;;;;;;24.55;58.00;100720.75;5025623;28;20068;-79
2022/06/08 07:09:23;;;;;;;12.07;8.98;;;;;;;24.26;58.41;100694.09;5024433;28;20510;-80
2022/06/08 07:11:50;;;;;;;11.77;8.45;;;;;;;24.56;58.72;100722.41;5024120;28;20059;-80
2022/06/08 07:14:18;;;;;;;14.75;7.50;;;;;;;24.43;59.24;100682.66;5023888;28;20180;-79
2022/06/08 07:16:51;;;;;;;9.98;6.68;;;;;;;25.05;58.71;100717.84;5025317;28;20243;-78
2022/06/08 07:19:19;;;;;;;6.80;6.10;;;;;;;25.03;58.72;100709.94;5024884;28;20063;-79
2022/06/08 07:21:46;;;;;;;20.10;10.82;;;;;;;24.94;57.65;100711.31;5026196;28;20130;-79
2022/06/08 07:24:17;;;;;;;10.77;8.73;;;;;;;24.79;58.40;100687.25;5026461;28;20057;-78
2022/06/08 07:26:44;;;;;;;;;;;;;;;24.90;58.46;100710.94;5028366;28;20495;-79
2022/06/08 07:29:11;;;;;;;11.45;8.40;;;;;;;24.73;58.02;100691.72;5027122;28;20283;-79
2022/06/08 07:31:38;;;;;;;14.52;8.82;;;;;;;24.97;58.11;100710.00;5026399;28;20495;-80
2022/06/08 07:34:05;;;;;;;7.55;6.68;;;;;;;25.15;58.56;100721.66;5026392;28;20222;-78
2022/06/08 07:36:32;;;;;;;7.97;6.25;;;;;;;25.12;58.17;100719.44;5026107;28;20080;-79
2022/06/08 07:38:59;;;;;;;8.23;6.75;;;;;;;25.20;58.14;100709.31;5025842;28;20460;-79
2022/06/08 07:41:26;;;;;;;10.85;7.05;;;;;;;25.41;57.55;100716.94;5026199;28;20077;-79
2022/06/08 07:43:53;;;;;;;10.85;8.52;;;;;;;25.11;56.92;100716.94;5026441;28;20041;-79
2022/06/08 07:46:21;;;;;;;11.85;7.00;;;;;;;25.10;57.41;100701.69;5026013;28;20053;-77
2022/06/08 07:51:34;;;;;;;11.48;7.18;;;;;;;25.02;56.48;100686.53;5027023;28;20045;-79
2022/06/08 07:54:00;;;;;;;7.55;5.95;;;;;;;25.28;57.26;100707.09;5026022;28;20525;-79
2022/06/08 07:56:28;;;;;;;11.73;7.45;;;;;;;25.03;55.29;100673.81;5026266;28;20108;-79
2022/06/08 07:58:56;;;;;;;7.18;6.50;;;;;;;25.39;56.43;100697.34;5026479;28;20046;-79
2022/06/08 08:01:23;;;;;;;8.88;6.55;;;;;;;25.53;56.79;100714.25;5026474;28;20107;-79
2022/06/08 08:03:49;;;;;;;14.30;8.00;;;;;;;25.68;54.73;100705.66;5026717;28;20049;-78
2022/06/08 08:06:16;;;;;;;8.48;6.60;;;;;;;25.80;55.97;100701.06;5025563;28;20373;-80
2022/06/08 08:08:43;;;;;;;7.35;5.45;;;;;;;25.68;56.15;100694.78;5026465;28;20115;-78
2022/06/08 08:11:11;;;;;;;6.07;5.47;;;;;;;25.87;56.26;100693.66;5025876;28;20049;-80
2022/06/08 08:13:37;;;;;;;8.88;4.28;;;;;;;25.83;54.77;100697.03;5025786;28;20628;-80
2022/06/08 08:16:05;;;;;;;7.38;5.15;;;;;;;25.78;55.54;100678.75;5025704;28;20450;-79
2022/06/08 08:18:32;;;;;;;6.32;4.43;;;;;;;25.71;56.10;100657.09;5025532;28;20045;-78
2022/06/08 08:20:59;;;;;;;5.15;4.65;;;;;;;25.62;56.26;100669.38;5024954;28;20053;-79
2022/06/08 08:23:25;;;;;;;3.55;3.25;;;;;;;25.59;53.40;100678.81;5026492;28;20499;-79
2022/06/08 08:25:52;;;;;;;11.35;4.82;;;;;;;25.55;55.13;100674.09;5025507;28;20560;-78
2022/06/08 08:28:19;;;;;;;3.70;3.03;;;;;;;25.72;52.90;100680.47;5025297;28;20049;-78
2022/06/08 08:30:46;;;;;;;3.17;2.88;;;;;;;25.62;50.81;100677.53;5025536;28;20041;-79
2022/06/08 08:33:13;;;;;;;3.70;3.40;;;;;;;25.51;52.04;100645.72;5026781;28;20049;-78
2022/06/08 08:35:40;;;;;;;10.00;4.40;;;;;;;25.77;53.70;100680.59;5026553;28;20054;-78
2022/06/08 08:38:08;;;;;;;4.15;3.85;;;;;;;25.73;51.82;100679.44;5025058;28;20045;-79
2022/06/08 08:40:56;;;;;;;3.72;3.40;;;;;;;25.86;53.72;100675.69;5025002;28;20119;-78
2022/06/08 08:43:26;;;;;;;4.65;3.50;;;;;;;25.29;53.37;100572.94;5025760;28;20487;-79
2022/06/08 08:46:35;;;;;;;6.63;4.70;;;;;;;26.01;53.46;100645.28;5025864;28;20046;-79
2022/06/08 08:49:10;;;;;;;3.88;3.55;;;;;;;26.12;51.66;100666.22;5025635;28;20053;-78
2022/06/08 08:51:43;;;;;;;4.57;3.90;;;;;;;26.05;53.94;100657.38;5025817;28;20057;-79
2022/06/08 08:54:36;;;;;;;6.75;4.20;;;;;;;25.77;54.78;100609.91;5025071;28;20484;-79
2022/06/08 08:57:32;;;;;;;7.82;4.28;;;;;;;25.95;51.70;100663.41;5027570;28;20099;-79
2022/06/08 09:00:06;;;;;;;6.45;4.43;;;;;;;25.83;52.28;100645.38;5022791;28;20474;-79
2022/06/08 09:05:21;;;;;;;4.05;3.67;;;;;;;26.09;54.57;100638.66;5026760;28;20057;-79
2022/06/08 09:07:49;;;;;;;5.15;3.97;;;;;;;26.40;54.43;100651.03;5027068;28;20100;-79
2022/06/08 09:10:19;;;;;;;4.20;3.80;;;;;;;25.70;54.88;100565.72;5026636;28;20050;-80
2022/06/08 09:12:47;;;;;;;4.10;3.70;;;;;;;26.26;55.14;100625.97;5024999;28;20100;-79
2022/06/08 09:15:16;;;;;;;7.68;4.20;;;;;;;26.12;52.15;100658.06;5024966;28;20053;-80
2022/06/08 09:17:56;;;;;;;5.90;3.45;;;;;;;26.09;53.52;100653.09;5025318;28;20127;-79
2022/06/08 09:20:26;;;;;;;4.18;3.38;;;;;;;26.20;54.28;100656.88;5028699;28;20476;-79
2022/06/08 09:22:55;;;;;;;4.53;3.95;;;;;;;26.13;52.92;100659.72;5010571;28;20446;-80
2022/06/08 09:25:26;;;;;;;3.72;3.30;;;;;;;26.32;54.67;100654.97;5009814;28;20053;-78
2022/06/08 09:27:57;;;;;;;4.57;4.13;;;;;;;26.31;55.13;100628.81;5009561;28;20049;-78
2022/06/08 09:30:27;;;;;;;4.40;4.00;;;;;;;26.58;54.35;100661.81;5010367;28;20484;-78
2022/06/08 09:33:23;;;;;;;4.25;3.25;;;;;;;26.39;54.26;100638.50;5010236;28;20062;-78
2022/06/08 09:35:56;;;;;;;8.18;3.63;;;;;;;26.33;53.45;100647.63;5008460;28;20554;-79
2022/06/08 09:38:26;;;;;;;4.43;3.50;;;;;;;26.40;55.38;100640.16;5009049;28;20045;-78
2022/06/08 09:41:13;;;;;;;6.13;3.95;;;;;;;26.57;54.78;100649.25;5009154;28;20059;-78
2022/06/08 09:43:49;;;;;;;4.78;3.20;;;;;;;26.41;54.75;100652.72;5018462;28;20289;-78
2022/06/08 09:52:30;;;;;;;4.07;3.50;;;;;;;26.05;55.67;100578.47;5015103;28;20060;-79
2022/06/08 09:55:08;;;;;;;4.05;3.28;;;;;;;26.54;54.52;100644.28;5030476;28;20069;-80
2022/06/08 09:57:49;;;;;;;3.85;3.47;;;;;;;26.43;53.80;100647.81;5028402;28;20065;-79
2022/06/08 10:00:19;;;;;;;;;;;;;;;26.55;54.62;100645.09;5029016;28;20045;-79
2022/06/08 10:03:19;;;;;;;2.80;2.55;;;;;;;26.06;52.01;100571.13;5025726;28;20310;-79
2022/06/08 10:06:03;;;;;;;4.10;3.55;;;;;;;26.77;54.89;100642.53;5027877;28;20046;-78
2022/06/08 10:08:52;;;;;;;3.67;2.50;;;;;;;26.55;51.31;100642.38;5029936;28;20075;-78
2022/06/08 10:11:47;;;;;;;3.35;3.05;;;;;;;26.87;53.66;100645.50;5028668;28;20058;-79
2022/06/08 10:14:25;;;;;;;3.20;2.90;;;;;;;26.90;52.30;100641.44;5026913;28;20130;-78
2022/06/08 10:16:56;;;;;;;3.38;2.25;;;;;;;26.94;48.22;100637.97;5028327;28;20049;-78
2022/06/08 10:19:31;;;;;;;4.50;2.80;;;;;;;26.96;48.97;100619.50;5030795;28;20041;-78
2022/06/08 10:22:01;;;;;;;4.35;2.40;;;;;;;26.82;51.41;100582.72;5030110;28;20057;-76
2022/06/08 10:24:36;;;;;;;5.28;3.10;;;;;;;26.61;51.45;100541.53;5032695;28;20057;-78
2022/06/08 10:27:12;;;;;;;4.25;2.33;;;;;;;27.16;49.65;100613.59;5030761;28;20053;-77
2022/06/08 10:30:00;;;;;;;5.00;1.95;;;;;;;27.18;47.73;100635.94;5033561;28;20049;-79
2022/06/08 10:32:34;;;;;;;2.10;1.75;;;;;;;26.91;45.34;100605.78;5029643;28;20107;-78
2022/06/08 10:35:16;;;;;;;2.80;2.60;;;;;;;26.85;50.00;100557.75;5029321;28;20060;-79
2022/06/08 10:37:44;;;;;;;1.88;1.70;;;;;;;27.11;47.43;100599.03;5027568;28;20049;-79
2022/06/08 10:40:20;;;;;;;3.22;2.55;;;;;;;27.46;51.36;100604.28;5027463;28;20058;-80
2022/06/08 10:42:49;;;;;;;2.72;1.95;;;;;;;27.45;47.88;100617.09;5027322;28;20246;-78
2022/06/08 10:45:27;;;;;;;3.33;2.47;;;;;;;27.81;49.80;100592.25;5027535;28;20076;-79
2022/06/08 10:47:58;;;;;;;3.88;2.35;;;;;;;27.92;50.10;100594.91;5028042;28;20053;-79
2022/06/08 10:50:28;;;;;;;4.35;2.83;;;;;;;27.29;50.62;100525.25;5027734;28;20056;-79
2022/06/08 10:54:53;;;;;;;4.50;2.75;;;;;;;27.33;51.03;100548.19;5027584;28;20056;-80
2022/06/08 10:55:43;;;;;;;3.20;2.90;;;;;;;27.46;51.83;100596.13;5029179;28;20049;-79
2022/06/08 10:58:13;;;;;;;5.57;2.67;;;;;;;27.30;52.07;100589.59;5011212;28;20591;-79
2022/06/08 11:01:05;;;;;;;2.78;2.38;;;;;;;27.17;52.04;100570.81;5030915;28;20103;-78
2022/06/08 11:03:36;;;;;;;6.78;2.10;;;;;;;27.31;52.02;100588.53;5024730;28;20058;-78
2022/06/08 11:06:31;;;;;;;4.35;2.30;;;;;;;27.04;45.32;100567.34;5029166;28;20923;-79
2022/06/08 11:08:59;;;;;;;4.72;2.45;;;;;;;27.03;50.63;100553.97;5013524;28;20064;-79
2022/06/08 11:11:45;;;;;;;3.13;2.40;;;;;;;27.27;47.74;100576.47;5026405;28;20372;-80
2022/06/08 11:14:32;;;;;;;5.22;2.55;;;;;;;27.35;47.19;100561.59;5026665;28;20057;-80
2022/06/08 11:17:05;;;;;;;3.45;2.10;;;;;;;27.64;48.09;100518.66;5027967;28;20492;-79
2022/06/08 11:19:34;;;;;;;10.73;1.73;;;;;;;27.74;44.61;100537.88;5026743;28;20046;-79
2022/06/08 11:22:10;;;;;;;5.32;2.33;;;;;;;27.96;47.86;100535.22;5025463;28;20045;-80
2022/06/08 11:24:42;;;;;;;3.50;2.47;;;;;;;28.34;48.00;100558.88;5026438;28;20071;-80
2022/06/08 11:27:12;;;;;;;6.15;2.17;;;;;;;27.28;46.11;100469.09;5027609;28;20103;-78
2022/06/08 11:29:45;;;;;;;2.65;2.45;;;;;;;27.36;48.53;100462.41;5026291;28;20096;-80
2022/06/08 11:32:25;;;;;;;2.70;2.47;;;;;;;27.75;48.59;100539.56;5026403;28;20056;-80
2022/06/08 11:35:18;;;;;;;2.97;2.27;;;;;;;28.03;49.08;100545.94;5026693;28;20330;-79
2022/06/08 11:38:02;;;;;;;2.80;2.50;;;;;;;27.80;50.24;100552.44;5027941;28;20319;-80
2022/06/08 11:40:35;;;;;;;3.30;2.47;;;;;;;27.53;50.70;100530.53;5026527;28;20085;-79
2022/06/08 11:43:10;;;;;;;2.67;2.38;;;;;;;27.00;46.22;100483.63;5025628;28;20057;-80
2022/06/08 11:45:42;;;;;;;3.40;2.67;;;;;;;27.38;50.89;100529.22;5026369;28;20053;-79
2022/06/08 11:48:15;;;;;;;3.60;2.45;;;;;;;27.24;52.03;100534.19;5026238;28;20131;-79
2022/06/08 11:50:51;;;;;;;2.90;2.63;;;;;;;27.40;51.39;100528.94;5026355;28;20103;-79
2022/06/08 11:53:31;;;;;;;2.70;2.33;;;;;;;27.14;50.15;100527.69;5027785;28;20056;-79
2022/06/08 11:56:09;;;;;;;4.65;2.35;;;;;;;27.25;49.50;100524.09;5026615;28;20241;-80
2022/06/08 11:58:36;;;;;;;2.30;2.05;;;;;;;27.31;50.00;100516.81;5026331;28;20053;-79
2022/06/08 12:01:25;;;;;;;3.25;2.60;;;;;;;27.59;50.31;100521.31;5027843;28;20130;-79